Time;durP1;ratioP1;P1;durP2;ratioP2;P2;SDS_P1;SDS_P2;PMS_P1;PMS_P2;Temp;Humidity;BMP_temperature;BMP_pressure;BME280_temperature;BME280_humidity;BME280_pressure;Samples;Min_cycle;Max_cycle;Signal;HPM_P1;HPM_P2
2022/10/23 00:00:21;;;;;;;17.45;5.78;;;11.60;99.90;;;;;;4197539;28;20086;-87
2022/10/23 00:02:22;;;;;;;14.25;4.57;;;11.60;99.90;;;;;;4197639;28;20131;-87
2022/10/23 00:04:25;;;;;;;14.63;5.43;;;11.60;99.90;;;;;;4214004;28;20525;-87
2022/10/23 00:06:28;;;;;;;18.02;5.72;;;11.60;99.90;;;;;;4206435;28;20579;-86
2022/10/23 00:08:28;;;;;;;14.95;4.75;;;11.60;99.90;;;;;;4231907;28;20092;-84
2022/10/23 00:10:29;;;;;;;14.32;5.50;;;11.60;99.90;;;;;;4232160;28;20497;-86
2022/10/23 00:12:30;;;;;;;17.08;5.35;;;11.50;99.90;;;;;;4230262;28;20378;-86
2022/10/23 00:14:31;;;;;;;16.40;6.32;;;11.50;99.90;;;;;;4230480;28;20055;-86
2022/10/23 00:16:32;;;;;;;16.05;6.80;;;11.50;99.90;;;;;;4232086;28;20082;-86
2022/10/23 00:18:33;;;;;;;15.05;5.50;;;11.50;99.90;;;;;;4230891;28;20040;-86
2022/10/23 00:20:34;;;;;;;14.07;5.75;;;11.50;99.90;;;;;;4213609;28;20048;-86
2022/10/23 00:22:35;;;;;;;16.95;6.70;;;11.50;99.90;;;;;;4227586;28;20374;-86
2022/10/23 00:24:36;;;;;;;21.75;6.20;;;11.50;99.90;;;;;;4215077;28;20052;-86
2022/10/23 00:26:39;;;;;;;23.35;5.88;;;11.50;99.90;;;;;;4213758;28;20039;-86
2022/10/23 00:28:44;;;;;;;15.70;6.57;;;11.50;99.90;;;;;;4213545;28;20591;-87
2022/10/23 00:30:45;;;;;;;20.25;6.13;;;11.50;99.90;;;;;;4214028;28;20051;-86
2022/10/23 00:32:45;;;;;;;18.98;6.80;;;11.50;99.90;;;;;;4214716;28;20040;-86
2022/10/23 00:34:46;;;;;;;17.83;6.72;;;11.50;99.90;;;;;;4213666;28;20047;-86
2022/10/23 00:36:47;;;;;;;20.70;6.90;;;11.50;99.90;;;;;;4214914;28;20387;-86
2022/10/23 00:38:49;;;;;;;16.80;7.72;;;11.50;99.90;;;;;;4213718;28;20055;-86
2022/10/23 00:40:50;;;;;;;16.27;6.93;;;11.50;99.90;;;;;;4218999;28;20044;-87
2022/10/23 00:42:51;;;;;;;23.23;7.88;;;11.40;99.90;;;;;;4214910;28;20039;-86
2022/10/23 00:44:51;;;;;;;22.45;7.50;;;11.40;99.90;;;;;;4214541;28;20040;-86
2022/10/23 00:46:52;;;;;;;19.45;7.43;;;11.40;99.90;;;;;;4196484;28;20052;-87
2022/10/23 00:48:53;;;;;;;16.55;6.70;;;11.40;99.90;;;;;;4214698;28;20033;-87
2022/10/23 00:50:55;;;;;;;21.10;7.53;;;11.40;99.90;;;;;;4213330;28;20055;-86
2022/10/23 00:52:59;;;;;;;16.48;6.57;;;11.40;99.90;;;;;;4213514;28;20059;-87
2022/10/23 00:55:00;;;;;;;26.50;6.40;;;11.40;99.90;;;;;;4214455;28;20044;-87
2022/10/23 00:57:03;;;;;;;16.42;6.20;;;11.40;99.90;;;;;;4218550;28;20119;-86
2022/10/23 00:59:04;;;;;;;19.38;6.32;;;11.40;99.90;;;;;;4213447;28;20043;-86
2022/10/23 01:01:20;;;;;;;23.90;6.85;;;11.40;99.90;;;;;;4214592;28;20092;-86
2022/10/23 01:03:27;;;;;;;19.50;7.07;;;11.40;99.90;;;;;;4214783;28;20490;-86
2022/10/23 01:05:37;;;;;;;13.70;6.15;;;11.30;99.90;;;;;;4213636;28;20044;-87
2022/10/23 01:07:46;;;;;;;18.33;6.90;;;11.30;99.90;;;;;;4214835;28;20105;-86
2022/10/23 01:09:55;;;;;;;21.17;6.53;;;11.30;99.90;;;;;;4196035;28;20052;-86
2022/10/23 01:12:14;;;;;;;18.23;5.85;;;11.30;99.90;;;;;;4214565;28;20055;-86
2022/10/23 01:14:20;;;;;;;14.75;6.35;;;11.30;99.90;;;;;;4215266;28;20089;-86
2022/10/23 01:16:32;;;;;;;20.35;7.47;;;11.30;99.90;;;;;;4230236;28;20094;-86
2022/10/23 01:18:52;;;;;;;16.73;5.90;;;11.30;99.90;;;;;;4231137;28;20047;-86
2022/10/23 01:21:02;;;;;;;10.90;5.78;;;11.30;99.90;;;;;;4230711;28;20096;-87
2022/10/23 01:23:32;;;;;;;16.52;6.80;;;11.20;99.90;;;;;;4230921;28;20074;-87
2022/10/23 01:25:51;;;;;;;17.83;6.63;;;11.20;99.90;;;;;;4230919;28;20050;-87
2022/10/23 01:27:59;;;;;;;20.30;8.00;;;11.20;99.90;;;;;;4231061;28;20427;-86
2022/10/23 01:30:07;;;;;;;16.30;6.10;;;11.20;99.90;;;;;;4230964;28;20059;-87
2022/10/23 01:32:26;;;;;;;16.40;6.70;;;11.20;99.90;;;;;;4229982;28;20051;-86
2022/10/23 01:34:43;;;;;;;25.60;6.53;;;11.20;99.90;;;;;;4245631;28;20050;-86
2022/10/23 01:36:47;;;;;;;21.42;6.07;;;11.20;99.90;;;;;;4231108;28;20048;-87
2022/10/23 01:39:06;;;;;;;17.10;6.88;;;11.20;99.90;;;;;;4223765;28;20082;-87
2022/10/23 01:41:15;;;;;;;11.55;5.97;;;11.10;99.90;;;;;;4213481;28;20040;-87
2022/10/23 01:43:26;;;;;;;14.43;6.28;;;11.10;99.90;;;;;;4214628;28;20431;-87
2022/10/23 01:45:36;;;;;;;14.75;7.05;;;11.10;99.90;;;;;;4214066;28;20044;-86
2022/10/23 01:47:38;;;;;;;20.48;7.07;;;11.20;99.90;;;;;;4214576;28;20040;-87
2022/10/23 01:49:41;;;;;;;13.80;6.45;;;11.10;99.90;;;;;;4205417;28;20133;-87
2022/10/23 01:51:47;;;;;;;13.35;6.57;;;11.10;99.90;;;;;;4230773;28;20047;-87
2022/10/23 01:53:51;;;;;;;15.90;6.75;;;11.00;99.90;;;;;;4230946;28;20043;-87
2022/10/23 01:55:54;;;;;;;19.83;8.10;;;11.00;99.90;;;;;;4231033;28;20043;-86
2022/10/23 01:57:55;;;;;;;20.95;7.72;;;11.00;99.90;;;;;;4229597;28;20082;-87
2022/10/23 02:00:00;;;;;;;21.17;7.63;;;11.00;99.90;;;;;;4229836;28;20078;-88
2022/10/23 02:02:03;;;;;;;19.38;7.97;;;11.00;99.90;;;;;;4231354;28;20043;-88
2022/10/23 02:04:08;;;;;;;16.20;7.03;;;11.00;99.90;;;;;;4231019;28;20047;-87
2022/10/23 02:06:09;;;;;;;16.25;8.02;;;11.00;99.90;;;;;;4229966;28;20077;-88
2022/10/23 02:08:10;;;;;;;20.85;8.20;;;11.00;99.90;;;;;;4226393;28;20063;-87
2022/10/23 02:10:12;;;;;;;19.27;7.38;;;11.00;99.90;;;;;;4214266;28;20059;-87
2022/10/23 02:12:25;;;;;;;16.40;7.07;;;11.00;99.90;;;;;;4214212;28;20478;-88
2022/10/23 02:14:38;;;;;;;18.02;7.53;;;11.00;99.90;;;;;;4213714;28;20052;-88
2022/10/23 02:16:53;;;;;;;16.73;7.32;;;10.90;99.90;;;;;;4213586;28;20055;-88
2022/10/23 02:19:28;;;;;;;17.95;6.90;;;10.90;99.90;;;;;;4214006;28;20105;-88
2022/10/23 02:21:47;;;;;;;17.20;6.78;;;10.90;99.90;;;;;;4216823;28;20073;-88
2022/10/23 02:23:55;;;;;;;17.23;7.30;;;10.90;99.90;;;;;;4218491;28;20106;-88
2022/10/23 02:26:04;;;;;;;15.90;7.03;;;10.90;99.90;;;;;;4232602;28;20050;-88
2022/10/23 02:28:09;;;;;;;11.85;6.95;;;10.90;99.90;;;;;;4233743;28;20043;-87
2022/10/23 02:30:18;;;;;;;20.48;7.38;;;10.80;99.90;;;;;;4216159;28;20048;-87
2022/10/23 02:32:23;;;;;;;21.38;7.28;;;10.90;99.90;;;;;;4235116;28;20078;-88
2022/10/23 02:34:24;;;;;;;12.02;6.80;;;10.60;99.90;;;;;;4234581;28;20055;-87
2022/10/23 02:36:25;;;;;;;13.70;7.63;;;10.80;99.90;;;;;;4234774;28;20043;-87
2022/10/23 02:38:41;;;;;;;17.77;6.93;;;10.80;99.90;;;;;;4232623;28;20054;-87
2022/10/23 02:40:46;;;;;;;14.13;7.10;;;10.80;99.90;;;;;;4232905;28;20048;-87
2022/10/23 02:42:56;;;;;;;14.32;7.32;;;10.80;99.90;;;;;;4232914;28;20043;-87
2022/10/23 02:45:28;;;;;;;19.27;7.40;;;10.80;99.90;;;;;;4233828;28;20073;-88
2022/10/23 02:47:54;;;;;;;15.85;7.20;;;10.70;99.90;;;;;;4233574;28;20400;-87
2022/10/23 02:50:13;;;;;;;19.90;7.35;;;10.70;99.90;;;;;;4243234;27;20047;-87
2022/10/23 02:52:26;;;;;;;16.05;6.95;;;10.70;99.90;;;;;;4232649;28;20055;-87
2022/10/23 02:54:35;;;;;;;20.55;7.15;;;10.70;99.90;;;;;;4232803;28;20047;-87
2022/10/23 02:56:57;;;;;;;19.42;7.40;;;10.70;99.90;;;;;;4232914;28;20079;-87
2022/10/23 02:59:19;;;;;;;20.98;8.32;;;10.70;99.90;;;;;;4229779;28;20437;-87
2022/10/23 03:01:25;;;;;;;21.65;7.50;;;10.70;99.90;;;;;;4216228;28;20039;-87
2022/10/23 03:03:38;;;;;;;15.88;7.32;;;10.60;99.90;;;;;;4216665;28;20558;-88
2022/10/23 03:05:41;;;;;;;19.80;7.47;;;10.60;99.90;;;;;;4216696;28;20494;-87
2022/10/23 03:07:43;;;;;;;15.43;7.20;;;10.70;99.90;;;;;;4218414;28;20044;-87
2022/10/23 03:09:43;;;;;;;15.07;7.00;;;10.70;99.90;;;;;;4218392;28;20127;-86
2022/10/23 03:11:44;;;;;;;16.40;7.95;;;10.70;99.90;;;;;;4221493;28;20044;-87
2022/10/23 03:13:45;;;;;;;19.17;6.90;;;10.60;99.90;;;;;;4218758;28;20129;-88
2022/10/23 03:15:46;;;;;;;11.75;6.78;;;10.60;99.90;;;;;;4222156;28;20040;-87
2022/10/23 03:17:46;;;;;;;13.63;7.03;;;10.60;99.90;;;;;;4233197;28;20043;-87
2022/10/23 03:19:47;;;;;;;17.60;7.38;;;10.60;99.90;;;;;;4235769;28;20374;-87
2022/10/23 03:21:48;;;;;;;15.70;7.50;;;10.60;99.90;;;;;;4236050;28;20039;-88
2022/10/23 03:23:49;;;;;;;14.90;7.40;;;10.60;99.90;;;;;;4229023;28;20062;-87
2022/10/23 03:25:50;;;;;;;14.13;7.05;;;10.60;99.90;;;;;;4218188;28;20051;-87
2022/10/23 03:27:51;;;;;;;14.25;7.72;;;10.60;99.90;;;;;;4217554;28;20097;-87
2022/10/23 03:29:52;;;;;;;12.60;6.93;;;10.60;99.90;;;;;;4218879;28;20047;-87
2022/10/23 03:31:54;;;;;;;13.30;7.55;;;10.60;99.90;;;;;;4217127;28;20054;-87
2022/10/23 03:33:55;;;;;;;16.25;6.80;;;10.60;99.90;;;;;;4220751;28;20046;-88
2022/10/23 03:35:56;;;;;;;16.90;7.78;;;10.60;99.90;;;;;;4232979;28;20047;-87
2022/10/23 03:37:57;;;;;;;18.85;8.02;;;10.60;99.90;;;;;;4233687;28;20044;-87
2022/10/23 03:39:58;;;;;;;13.57;7.72;;;10.60;99.90;;;;;;4233402;28;20048;-87
2022/10/23 03:41:59;;;;;;;18.05;7.75;;;10.60;99.90;;;;;;4233082;28;20054;-88
2022/10/23 03:44:00;;;;;;;22.80;8.27;;;10.50;99.90;;;;;;4231429;28;20054;-86
2022/10/23 03:46:01;;;;;;;17.42;7.47;;;10.70;99.90;;;;;;4232407;28;20127;-87
2022/10/23 03:48:02;;;;;;;22.90;8.45;;;10.60;99.90;;;;;;4232801;27;20118;-87
2022/10/23 03:50:03;;;;;;;19.15;7.72;;;10.70;99.90;;;;;;4232606;28;20044;-87
2022/10/23 03:52:04;;;;;;;18.42;8.18;;;10.70;99.90;;;;;;4228667;28;20035;-87
2022/10/23 03:54:05;;;;;;;18.42;8.15;;;10.70;99.90;;;;;;4232384;28;20048;-87
2022/10/23 03:56:06;;;;;;;18.58;7.93;;;10.70;99.90;;;;;;4233183;28;20132;-86
2022/10/23 03:58:06;;;;;;;17.63;8.32;;;10.70;99.90;;;;;;4232336;28;20092;-87
2022/10/23 04:00:09;;;;;;;16.65;9.18;;;10.70;99.90;;;;;;4231984;28;20137;-87
2022/10/23 04:02:11;;;;;;;18.52;8.18;;;10.60;99.90;;;;;;4232032;28;20047;-87
2022/10/23 04:04:13;;;;;;;17.75;8.75;;;9.50;99.90;;;;;;4233273;27;20036;-87
2022/10/23 04:06:13;;;;;;;21.90;9.02;;;10.60;99.90;;;;;;4232768;28;20047;-87
2022/10/23 04:08:14;;;;;;;14.48;8.65;;;10.60;99.90;;;;;;4229026;28;20406;-86
2022/10/23 04:10:16;;;;;;;21.85;9.20;;;10.80;99.90;;;;;;4214385;28;20047;-87
2022/10/23 04:12:17;;;;;;;19.95;8.38;;;10.60;99.90;;;;;;4215427;28;20071;-87
2022/10/23 04:14:17;;;;;;;18.35;9.57;;;10.60;99.90;;;;;;4215746;28;20052;-87
2022/10/23 04:16:18;;;;;;;16.38;8.05;;;10.60;99.90;;;;;;4216597;28;20048;-87
2022/10/23 04:18:19;;;;;;;21.35;8.73;;;10.60;99.90;;;;;;4216467;28;20044;-88
2022/10/23 04:20:20;;;;;;;21.83;9.35;;;10.60;99.90;;;;;;4216811;28;20539;-88
2022/10/23 04:22:21;;;;;;;19.45;8.60;;;10.50;99.90;;;;;;4222615;28;20066;-86
2022/10/23 04:24:23;;;;;;;16.05;8.82;;;9.60;99.90;;;;;;4233491;28;20039;-88
2022/10/23 04:26:24;;;;;;;16.10;8.50;;;10.50;99.90;;;;;;4223863;28;20050;-86
2022/10/23 04:28:25;;;;;;;16.75;8.80;;;10.50;99.90;;;;;;4216812;28;20044;-87
2022/10/23 04:30:26;;;;;;;20.92;9.20;;;10.60;99.90;;;;;;4215421;28;20051;-86
2022/10/23 04:32:26;;;;;;;16.77;7.97;;;10.50;99.90;;;;;;4215383;28;20410;-87
2022/10/23 04:34:29;;;;;;;19.73;8.80;;;10.50;99.90;;;;;;4215020;28;20036;-87
2022/10/23 04:36:30;;;;;;;16.15;8.93;;;10.50;99.90;;;;;;4215166;28;20503;-86
2022/10/23 04:38:31;;;;;;;20.83;9.35;;;10.50;99.90;;;;;;4214911;28;20101;-86
2022/10/23 04:40:32;;;;;;;17.70;9.50;;;10.50;99.90;;;;;;4215702;28;20048;-86
2022/10/23 04:42:32;;;;;;;16.52;9.35;;;10.50;99.90;;;;;;4215163;28;20048;-86
2022/10/23 04:44:33;;;;;;;21.20;9.43;;;10.50;99.90;;;;;;4221455;28;20394;-86
2022/10/23 04:46:34;;;;;;;14.80;8.82;;;10.50;99.90;;;;;;4227445;28;20100;-87
2022/10/23 04:48:36;;;;;;;22.42;9.80;;;10.40;99.90;;;;;;4225685;28;20036;-87
2022/10/23 04:50:36;;;;;;;16.98;9.60;;;10.40;99.90;;;;;;4223808;28;20090;-86
2022/10/23 04:52:38;;;;;;;18.67;9.27;;;10.50;99.90;;;;;;4236942;28;20051;-86
2022/10/23 04:54:40;;;;;;;21.08;9.77;;;10.40;99.90;;;;;;4224030;28;20048;-87
2022/10/23 04:56:41;;;;;;;15.45;8.25;;;10.40;99.90;;;;;;4223605;28;20043;-87
2022/10/23 04:58:43;;;;;;;18.13;9.35;;;10.40;99.90;;;;;;4232553;28;20090;-87
2022/10/23 05:00:54;;;;;;;23.60;9.73;;;10.40;99.90;;;;;;4235477;28;20047;-87
2022/10/23 05:03:03;;;;;;;20.27;9.05;;;10.40;99.90;;;;;;4232999;28;20044;-87
2022/10/23 05:05:11;;;;;;;17.75;9.60;;;10.40;99.90;;;;;;4232977;28;20054;-87
2022/10/23 05:07:12;;;;;;;21.08;9.63;;;10.40;99.90;;;;;;4233569;28;20469;-86
2022/10/23 05:09:14;;;;;;;19.45;10.23;;;10.40;99.90;;;;;;4228154;28;20383;-87
2022/10/23 05:11:15;;;;;;;22.75;9.98;;;10.40;99.90;;;;;;4214665;28;20039;-87
2022/10/23 05:13:18;;;;;;;18.98;9.27;;;10.60;99.90;;;;;;4214995;28;20565;-86
2022/10/23 05:15:19;;;;;;;19.88;8.77;;;10.40;99.90;;;;;;4213170;28;20433;-86
2022/10/23 05:17:25;;;;;;;21.40;9.95;;;10.40;99.90;;;;;;4216125;28;20040;-87
2022/10/23 05:19:31;;;;;;;20.75;10.15;;;10.40;99.90;;;;;;4231126;28;20132;-86
2022/10/23 05:21:34;;;;;;;17.15;9.00;;;10.50;99.90;;;;;;4231139;28;20040;-86
2022/10/23 05:23:37;;;;;;;21.75;9.32;;;10.50;99.90;;;;;;4231228;28;20045;-87
2022/10/23 05:25:38;;;;;;;17.40;8.65;;;10.40;99.90;;;;;;4231306;28;20043;-86
2022/10/23 05:27:39;;;;;;;25.00;9.43;;;10.40;99.90;;;;;;4231188;28;20054;-86
2022/10/23 05:29:40;;;;;;;22.60;9.77;;;10.40;99.90;;;;;;4231533;28;20098;-85
2022/10/23 05:31:41;;;;;;;21.98;9.02;;;10.40;99.90;;;;;;4230685;28;20076;-86
2022/10/23 05:33:42;;;;;;;20.73;9.98;;;10.40;99.90;;;;;;4196737;28;20106;-86
2022/10/23 05:35:44;;;;;;;20.88;9.60;;;10.40;99.90;;;;;;4219045;28;20051;-87
2022/10/23 05:37:47;;;;;;;29.02;11.55;;;10.40;99.90;;;;;;4213566;28;20114;-87
2022/10/23 05:39:47;;;;;;;21.38;9.73;;;10.40;99.90;;;;;;4214359;28;20079;-87
2022/10/23 05:41:48;;;;;;;21.73;10.38;;;10.40;99.90;;;;;;4230723;28;20047;-86
2022/10/23 05:43:49;;;;;;;24.30;10.43;;;10.40;99.90;;;;;;4215614;28;20390;-87
2022/10/23 05:45:51;;;;;;;17.48;9.20;;;10.40;99.90;;;;;;4214310;28;20040;-87
2022/10/23 05:47:53;;;;;;;24.83;11.65;;;10.40;99.90;;;;;;4214490;28;20397;-87
2022/10/23 05:49:54;;;;;;;23.75;10.15;;;9.90;99.90;;;;;;4215293;28;20050;-87
2022/10/23 05:51:54;;;;;;;25.27;10.85;;;10.40;99.90;;;;;;4231405;28;20079;-87
2022/10/23 05:53:55;;;;;;;19.27;9.93;;;10.50;99.90;;;;;;4230463;28;20063;-87
2022/10/23 05:56:01;;;;;;;19.27;10.02;;;10.40;99.90;;;;;;4234005;28;20072;-87
2022/10/23 05:58:02;;;;;;;23.90;10.77;;;10.50;99.90;;;;;;4232569;28;20059;-87
2022/10/23 06:00:04;;;;;;;23.73;9.13;;;10.70;99.90;;;;;;4223603;28;20039;-87
2022/10/23 06:02:06;;;;;;;21.25;9.32;;;10.00;99.90;;;;;;4234012;28;20964;-86
2022/10/23 06:04:07;;;;;;;25.02;9.70;;;10.40;99.90;;;;;;4231057;28;20040;-86
2022/10/23 06:06:07;;;;;;;20.25;8.85;;;10.40;99.90;;;;;;4216170;28;20374;-87
2022/10/23 06:08:10;;;;;;;26.00;9.88;;;10.50;99.90;;;;;;4221002;28;20056;-86
2022/10/23 06:10:11;;;;;;;19.25;9.57;;;10.50;99.90;;;;;;4216826;28;20044;-86
2022/10/23 06:12:12;;;;;;;17.42;9.30;;;10.50;99.90;;;;;;4217145;28;20048;-85
2022/10/23 06:14:13;;;;;;;22.67;9.52;;;10.50;99.90;;;;;;4215336;28;20124;-86
2022/10/23 06:16:21;;;;;;;20.20;9.23;;;10.60;99.90;;;;;;4216567;28;20067;-87
2022/10/23 06:18:22;;;;;;;23.55;9.15;;;10.50;99.90;;;;;;4216560;28;20101;-86
2022/10/23 06:20:24;;;;;;;20.13;9.68;;;10.50;99.90;;;;;;4216042;28;20039;-86
2022/10/23 06:22:25;;;;;;;23.98;10.15;;;10.50;99.90;;;;;;4216740;28;20040;-87
2022/10/23 06:24:26;;;;;;;22.65;10.05;;;10.50;99.90;;;;;;4217155;28;20047;-87
2022/10/23 06:26:27;;;;;;;22.95;9.32;;;10.50;99.90;;;;;;4220290;28;20597;-86
2022/10/23 06:28:28;;;;;;;22.75;10.05;;;10.50;99.90;;;;;;4215498;28;20135;-87
2022/10/23 06:30:28;;;;;;;21.98;10.85;;;10.50;99.90;;;;;;4217146;28;20541;-87
2022/10/23 06:32:32;;;;;;;27.52;9.38;;;9.70;99.90;;;;;;4217217;28;20486;-86
2022/10/23 06:34:33;;;;;;;22.90;9.07;;;10.50;99.90;;;;;;4232659;28;20521;-88
2022/10/23 06:36:34;;;;;;;21.33;9.90;;;9.60;99.90;;;;;;4216680;28;20090;-87
2022/10/23 06:38:39;;;;;;;23.27;10.00;;;10.40;99.90;;;;;;4216873;28;20123;-87
2022/10/23 06:40:44;;;;;;;24.23;9.70;;;10.40;99.90;;;;;;4216959;28;20433;-86
2022/10/23 06:42:45;;;;;;;15.82;8.45;;;10.40;99.90;;;;;;4232212;28;20039;-87
2022/10/23 06:44:49;;;;;;;18.77;8.45;;;10.40;99.90;;;;;;4219462;28;20521;-87
2022/10/23 06:46:50;;;;;;;23.30;9.32;;;10.40;99.90;;;;;;4217177;28;20401;-86
2022/10/23 06:48:51;;;;;;;24.13;9.55;;;10.10;99.90;;;;;;4217090;28;20510;-87
2022/10/23 06:50:52;;;;;;;24.13;9.82;;;10.40;99.90;;;;;;4217097;28;20110;-87
2022/10/23 06:52:53;;;;;;;22.30;9.75;;;10.30;99.90;;;;;;4216532;28;20094;-87
2022/10/23 06:54:54;;;;;;;24.30;9.20;;;10.40;99.90;;;;;;4216835;28;20040;-88
2022/10/23 06:56:55;;;;;;;21.75;9.25;;;10.40;99.90;;;;;;4217259;28;20052;-86
2022/10/23 06:58:55;;;;;;;18.13;9.15;;;10.40;99.90;;;;;;4217219;28;20410;-86
2022/10/23 07:01:00;;;;;;;21.55;9.50;;;10.40;99.90;;;;;;4218106;28;20401;-87
2022/10/23 07:03:01;;;;;;;18.08;10.02;;;10.40;99.90;;;;;;4216739;28;20052;-87
2022/10/23 07:05:02;;;;;;;20.52;8.70;;;10.40;99.90;;;;;;4216275;28;20500;-85
2022/10/23 07:07:03;;;;;;;19.85;9.35;;;10.50;99.90;;;;;;4215187;28;20050;-87
2022/10/23 07:09:03;;;;;;;30.10;9.95;;;10.50;99.90;;;;;;4216660;28;20537;-88
2022/10/23 07:11:06;;;;;;;22.80;10.10;;;10.50;99.90;;;;;;4217325;28;20051;-87
2022/10/23 07:13:09;;;;;;;19.20;9.65;;;10.50;99.90;;;;;;4216366;28;20044;-86
2022/10/23 07:15:10;;;;;;;19.77;9.52;;;10.60;99.90;;;;;;4214586;28;20056;-86
2022/10/23 07:17:11;;;;;;;22.90;9.45;;;10.60;99.90;;;;;;4217287;28;20051;-90
2022/10/23 07:19:12;;;;;;;20.80;8.95;;;10.60;99.90;;;;;;4213328;28;20043;-87
2022/10/23 07:21:13;;;;;;;22.27;10.68;;;10.70;99.90;;;;;;4225272;28;20047;-87
2022/10/23 07:23:15;;;;;;;21.17;9.98;;;10.70;99.90;;;;;;4226611;28;20126;-86
2022/10/23 07:25:15;;;;;;;18.63;7.97;;;10.80;99.90;;;;;;4224275;28;20052;-87
2022/10/23 07:27:16;;;;;;;17.23;8.20;;;10.80;99.90;;;;;;4217019;28;20042;-86
2022/10/23 07:29:17;;;;;;;18.20;9.07;;;10.90;99.90;;;;;;4198476;28;20097;-86
2022/10/23 07:31:18;;;;;;;22.15;8.77;;;10.90;99.90;;;;;;4223658;28;20048;-87
2022/10/23 07:33:18;;;;;;;26.77;9.55;;;10.90;99.90;;;;;;4223179;28;20532;-84
2022/10/23 07:35:19;;;;;;;20.83;9.07;;;11.00;99.90;;;;;;4233294;28;20043;-86
2022/10/23 07:37:20;;;;;;;18.08;8.35;;;11.00;99.90;;;;;;4221767;28;20044;-86
2022/10/23 07:39:21;;;;;;;24.25;7.90;;;11.00;99.90;;;;;;4214569;28;20524;-86
2022/10/23 07:41:22;;;;;;;17.45;8.38;;;11.10;99.90;;;;;;4197822;28;20060;-86
2022/10/23 07:43:24;;;;;;;15.68;8.23;;;11.10;99.90;;;;;;4215932;28;20040;-86
2022/10/23 07:45:25;;;;;;;15.73;7.60;;;11.20;99.90;;;;;;4215393;28;20402;-85
2022/10/23 07:47:26;;;;;;;19.02;9.10;;;11.20;99.90;;;;;;4215813;28;20051;-87
2022/10/23 07:49:27;;;;;;;15.82;7.70;;;10.50;99.90;;;;;;4215543;28;20108;-86
2022/10/23 07:51:29;;;;;;;19.77;8.38;;;10.90;99.90;;;;;;4229834;28;20142;-86
2022/10/23 07:53:31;;;;;;;20.35;8.57;;;11.20;99.90;;;;;;4228148;28;20044;-87
2022/10/23 07:55:35;;;;;;;21.23;8.18;;;10.60;99.90;;;;;;4239138;28;20043;-88
2022/10/23 07:57:38;;;;;;;18.13;7.65;;;11.30;99.90;;;;;;4232765;28;20082;-89
2022/10/23 07:59:38;;;;;;;18.35;8.02;;;11.40;99.90;;;;;;4231601;28;20094;-89
2022/10/23 08:01:41;;;;;;;16.70;7.60;;;11.40;99.90;;;;;;4214512;28;20044;-87
2022/10/23 08:03:42;;;;;;;15.90;8.75;;;11.40;99.90;;;;;;4230759;28;20055;-86
2022/10/23 08:05:43;;;;;;;18.55;7.80;;;11.00;99.90;;;;;;4231402;28;20043;-87
2022/10/23 08:07:43;;;;;;;18.25;8.02;;;11.50;99.90;;;;;;4229740;28;20101;-87
2022/10/23 08:09:44;;;;;;;21.35;7.97;;;11.50;99.90;;;;;;4218343;28;20164;-87
2022/10/23 08:11:48;;;;;;;16.10;8.80;;;11.50;99.90;;;;;;4214068;28;20059;-86
2022/10/23 08:13:49;;;;;;;15.82;8.07;;;11.50;99.90;;;;;;4214748;28;20051;-87
2022/10/23 08:15:51;;;;;;;17.35;8.57;;;11.10;99.90;;;;;;4215564;28;20044;-86
2022/10/23 08:17:52;;;;;;;20.35;8.13;;;11.60;99.90;;;;;;4215712;28;20035;-87
2022/10/23 08:19:53;;;;;;;16.38;8.75;;;11.60;99.90;;;;;;4214096;28;20100;-87
2022/10/23 08:21:56;;;;;;;14.90;7.50;;;11.60;99.90;;;;;;4215676;28;20036;-87
2022/10/23 08:23:58;;;;;;;15.02;7.45;;;11.60;99.90;;;;;;4215915;28;20055;-87
2022/10/23 08:26:00;;;;;;;14.98;6.65;;;11.70;99.90;;;;;;4231754;28;20043;-87
2022/10/23 08:28:01;;;;;;;19.33;8.70;;;11.10;99.90;;;;;;4234148;28;20127;-87
2022/10/23 08:30:02;;;;;;;19.50;8.15;;;12.40;99.90;;;;;;4237027;28;20043;-87
2022/10/23 08:32:03;;;;;;;15.07;7.45;;;11.80;99.90;;;;;;4236559;28;20420;-86
2022/10/23 08:34:04;;;;;;;18.35;7.65;;;11.80;99.90;;;;;;4237560;28;20070;-87
2022/10/23 08:36:14;;;;;;;18.48;8.25;;;11.80;99.90;;;;;;4236683;28;20044;-87
2022/10/23 08:38:19;;;;;;;23.33;8.25;;;11.90;99.90;;;;;;4237908;28;20036;-88
2022/10/23 08:40:23;;;;;;;17.63;7.78;;;11.90;99.90;;;;;;4219845;28;20650;-87
2022/10/23 08:42:26;;;;;;;13.45;7.35;;;11.90;99.90;;;;;;4235107;28;20458;-88
2022/10/23 08:44:43;;;;;;;16.70;7.95;;;12.00;99.90;;;;;;4229237;28;20052;-88
2022/10/23 08:46:51;;;;;;;15.27;6.55;;;12.10;99.90;;;;;;4235035;28;20078;-87
2022/10/23 08:49:19;;;;;;;16.23;6.75;;;12.10;99.90;;;;;;4226051;28;20394;-88
2022/10/23 08:51:43;;;;;;;13.93;6.97;;;12.20;99.90;;;;;;4216548;28;20107;-88
2022/10/23 08:53:58;;;;;;;14.30;6.80;;;12.40;99.90;;;;;;4229421;28;20050;-88
2022/10/23 08:56:05;;;;;;;15.80;7.20;;;12.30;99.90;;;;;;4214150;28;20048;-88
2022/10/23 08:58:14;;;;;;;15.07;6.90;;;12.40;99.90;;;;;;4225776;28;20051;-86
2022/10/23 09:00:17;;;;;;;15.73;7.35;;;12.50;99.90;;;;;;4231815;28;20552;-86
2022/10/23 09:02:27;;;;;;;16.67;7.47;;;12.50;99.90;;;;;;4234969;28;20048;-87
2022/10/23 09:04:29;;;;;;;10.55;6.78;;;12.70;99.90;;;;;;4233082;28;20055;-88
2022/10/23 09:07:05;;;;;;;12.73;6.38;;;12.80;99.90;;;;;;4233493;28;20100;-89
2022/10/23 09:09:25;;;;;;;15.55;6.78;;;12.80;99.90;;;;;;4215481;28;20047;-88
2022/10/23 09:11:53;;;;;;;14.48;6.00;;;12.90;99.90;;;;;;4218466;28;20048;-89
2022/10/23 09:14:03;;;;;;;13.55;6.60;;;13.00;99.90;;;;;;4229330;28;20406;-88
2022/10/23 09:16:21;;;;;;;18.35;7.03;;;13.10;99.90;;;;;;4230067;28;20047;-88
2022/10/23 09:18:23;;;;;;;17.70;6.87;;;13.20;99.90;;;;;;4215738;28;20040;-87
2022/10/23 09:20:36;;;;;;;12.05;6.18;;;13.30;99.90;;;;;;4213560;28;20385;-89
2022/10/23 09:22:37;;;;;;;13.00;6.32;;;13.50;99.90;;;;;;4215215;28;20497;-88
2022/10/23 09:24:49;;;;;;;10.93;5.57;;;13.60;99.90;;;;;;4218057;28;20039;-90
2022/10/23 09:26:52;;;;;;;11.02;5.57;;;13.70;99.90;;;;;;4232585;28;20127;-89
2022/10/23 09:29:17;;;;;;;14.88;7.57;;;13.90;99.90;;;;;;4231918;28;20067;-89
2022/10/23 09:31:18;;;;;;;12.80;5.80;;;14.10;99.90;;;;;;4232143;28;20040;-86
2022/10/23 09:33:27;;;;;;;10.23;5.07;;;14.20;99.90;;;;;;4232794;28;20086;-88
2022/10/23 09:35:30;;;;;;;11.80;4.97;;;14.00;99.90;;;;;;4248167;28;20527;-89
2022/10/23 09:37:33;;;;;;;11.07;4.93;;;14.30;99.90;;;;;;4232934;28;20392;-90
2022/10/23 09:39:37;;;;;;;12.38;5.47;;;14.40;99.90;;;;;;4232408;28;20040;-89
2022/10/23 09:41:39;;;;;;;11.00;5.15;;;14.40;99.90;;;;;;4233014;28;20400;-90
2022/10/23 09:43:40;;;;;;;9.68;5.45;;;14.50;99.90;;;;;;4231571;28;20123;-89
2022/10/23 09:45:43;;;;;;;10.32;5.07;;;14.50;99.90;;;;;;4232473;28;20051;-91
2022/10/23 09:47:44;;;;;;;11.98;5.50;;;14.60;99.90;;;;;;4231276;28;20043;-90
2022/10/23 09:49:50;;;;;;;8.68;5.53;;;14.60;99.90;;;;;;4232247;28;20516;-91
2022/10/23 09:51:57;;;;;;;11.68;5.13;;;14.60;99.90;;;;;;4233489;28;20389;-90
2022/10/23 09:53:59;;;;;;;9.85;5.20;;;14.70;99.90;;;;;;4230644;28;20548;-87
2022/10/23 09:56:23;;;;;;;8.55;4.72;;;14.70;99.90;;;;;;4231820;28;20043;-88
2022/10/23 09:58:31;;;;;;;11.07;5.35;;;14.70;99.90;;;;;;4231785;28;20052;-88
2022/10/23 10:00:32;;;;;;;14.80;5.40;;;14.80;99.90;;;;;;4232020;28;20051;-89
2022/10/23 10:02:35;;;;;;;13.02;5.20;;;15.00;99.90;;;;;;4237202;28;20513;-88
2022/10/23 10:04:39;;;;;;;8.07;4.25;;;15.10;99.90;;;;;;4239561;28;20103;-88
2022/10/23 10:06:41;;;;;;;8.48;4.38;;;15.10;99.90;;;;;;4233930;28;20096;-88
2022/10/23 10:08:48;;;;;;;5.95;3.80;;;15.20;99.90;;;;;;4235730;28;20043;-88
2022/10/23 10:10:59;;;;;;;10.43;4.03;;;15.20;99.90;;;;;;4236085;28;20043;-88
2022/10/23 10:13:09;;;;;;;12.80;4.72;;;15.20;99.90;;;;;;4234153;28;20039;-88
2022/10/23 10:15:27;;;;;;;8.93;4.57;;;15.20;99.90;;;;;;4230670;28;20055;-88
2022/10/23 10:17:33;;;;;;;13.30;5.10;;;15.30;99.90;;;;;;4230714;28;20051;-88
2022/10/23 10:19:39;;;;;;;16.35;4.88;;;15.40;99.90;;;;;;4229561;28;20047;-88
2022/10/23 10:22:17;;;;;;;7.35;4.20;;;15.40;99.90;;;;;;4235645;28;20040;-89
2022/10/23 10:24:33;;;;;;;9.30;4.82;;;15.50;99.90;;;;;;4231508;28;20060;-89
2022/10/23 10:26:45;;;;;;;10.55;4.15;;;15.50;99.90;;;;;;4229458;28;20039;-89
2022/10/23 10:29:12;;;;;;;14.25;4.43;;;15.60;99.90;;;;;;4195267;28;20056;-89
2022/10/23 10:31:40;;;;;;;8.35;3.83;;;15.70;99.90;;;;;;4229660;28;20039;-89
2022/10/23 10:34:02;;;;;;;11.37;4.23;;;15.70;99.90;;;;;;4230916;28;20100;-89
2022/10/23 10:36:35;;;;;;;9.70;3.90;;;15.80;99.90;;;;;;4230112;28;20114;-89
2022/10/23 10:38:56;;;;;;;11.82;4.32;;;15.90;99.90;;;;;;4230842;28;20044;-90
2022/10/23 10:41:20;;;;;;;9.30;4.45;;;16.00;99.90;;;;;;4230698;28;20044;-90